Impacts METAR Board
IDs:

KSLC - Salt Lake City Intl, UT, US

Updated at: 0300 UTC 06 Dec 2019
Potential Impact None Slight Moderate High
Time 05/15Z 05/16Z 05/17Z 05/18Z 05/19Z 05/20Z 05/21Z 05/22Z 05/23Z 06/00Z 06/01Z 06/02Z 06/03Z
Temp34 33 35 35 35 36 37 37 37 36 35 35 36
Dewpt33 33 34 34 34 34 35 34 34 34 34 34 34
Altim30.04 30.09 30.12 30.14 30.16 30.16 30.17 30.19 30.21 30.23 30.24 30.26 30.27
VIS0.5 0.5 1 1 2 2 2 2 2 2 2 2.5 2.5
CIG4 6 7 6 5 6 6 10 9 7 11 12 30
CoverOVCOVCOVCOVCOVCOVCOVCOVCOVCOVCOVCOVCOVC
FltCatLIFRLIFRIFRIFRIFRIFRIFRIFRIFRIFRIFRIFRIFR
WX-SN BR BCFG-SN BR-RA BR-RA BR-RA BR-RA BRBRBRBRBRBRBRBR
WDir10350000300000103603400
WSpd4 4 0 0 0 3 0 0 0 5 6 5 0
WGst-- -- -- -- -- -- -- -- -- -- -- -- --
Raw hourly METARs
KSLC 051454Z 01004KT 1/2SM R16L/5000VP6000FT -SN BR BCFG OVC004 01/01 A3004 RMK AO2 SFC VIS 1 1/2 RAE52SNB52 SLP184 P0003 60006 T00110006 53029
KSLC 051554Z 35004KT 1/2SM R16L/4000V4500FT -SN BR OVC006 01/01 A3009 RMK AO2 SFC VIS 1 SLP199 RAB02E05 P0002 T00060006
KSLC 051654Z 00000KT 1SM R16L/6000VP6000FT -RA BR OVC007 02/01 A3012 RMK AO2 SFC VIS 1 3/4 RAB16SNE16 SLP208 P0001 I1000 T00170011
KSLC 051754Z 00000KT 1SM R16L/3500VP6000FT -RA BR BKN006 OVC023 02/01 A3014 RMK AO2 SFC VIS 2 SLP216 4/001 P0000 60009 I1000 I6000 T00170011 10017 20006 53018
KSLC 051854Z 00000KT 2SM -RA BR OVC005 02/01 A3016 RMK AO2 RAE1756B37 SLP222 P0001 T00170011
KSLC 051954Z 30003KT 2SM R16L/5500VP6000FT -RA BR OVC006 02/01 A3016 RMK AO2 RAE15B50 SLP221 P0001 T00220011
KSLC 052054Z 00000KT 2SM BR OVC006 03/02 A3017 RMK AO2 SFC VIS 3 RAE06 SLP225 P0000 60002 T00280017 51009
KSLC 052154Z 00000KT 2SM BR OVC010 03/01 A3019 RMK AO2 SFC VIS 3 SLP231 T00280011
KSLC 052254Z 00000KT 2SM BR OVC009 03/01 A3021 RMK AO2 SFC VIS 3 SLP238 T00280011
KSLC 052354Z 01005KT 2SM BR OVC007 02/01 A3023 RMK AO2 SLP245 4/001 60002 T00220011 10033 20017 51013
KSLC 060054Z 36006KT 2SM BR OVC011 02/01 A3024 RMK AO2 SLP250 T00170011
KSLC 060154Z 34005KT 2 1/2SM BR OVC012 02/01 A3026 RMK AO2 TWR VIS 3 SLP254 T00170011
KSLC 060254Z 00000KT 2 1/2SM BR OVC030 02/01 A3027 RMK AO2 TWR VIS 3 SLP258 T00220011 51011



Page loaded:  03:47 UTC  |   07:47 PM Pacific  |   08:47 PM Mountain  |   09:47 PM Central  |   10:47 PM Eastern

 

ADVISORIES

FORECASTS

FORECASTS

OBSERVATIONS

USER TOOLS

ABOUT US